sensor_id;sensor_type;location;lat;lon;timestamp;P1;durP1;ratioP1;P2;durP2;ratioP2
79047;SDS011;68680;50.764;6.120;2023-05-10T00:00:48;67.35;;;23.10;;
79047;SDS011;68680;50.764;6.120;2023-05-10T00:03:14;85.25;;;25.58;;
79047;SDS011;68680;50.764;6.120;2023-05-10T00:05:39;76.25;;;25.30;;
79047;SDS011;68680;50.764;6.120;2023-05-10T00:08:05;71.40;;;24.98;;
79047;SDS011;68680;50.764;6.120;2023-05-10T00:10:31;87.68;;;28.48;;
79047;SDS011;68680;50.764;6.120;2023-05-10T00:12:56;89.13;;;27.33;;
79047;SDS011;68680;50.764;6.120;2023-05-10T00:15:24;82.68;;;28.63;;
79047;SDS011;68680;50.764;6.120;2023-05-10T00:17:49;69.13;;;25.90;;
79047;SDS011;68680;50.764;6.120;2023-05-10T00:20:15;74.72;;;26.38;;
79047;SDS011;68680;50.764;6.120;2023-05-10T00:22:41;77.53;;;26.90;;
79047;SDS011;68680;50.764;6.120;2023-05-10T00:25:07;69.63;;;23.80;;
79047;SDS011;68680;50.764;6.120;2023-05-10T00:27:34;77.38;;;27.08;;
79047;SDS011;68680;50.764;6.120;2023-05-10T00:30:00;81.07;;;25.55;;
79047;SDS011;68680;50.764;6.120;2023-05-10T00:32:27;80.78;;;26.85;;
79047;SDS011;68680;50.764;6.120;2023-05-10T00:34:52;84.05;;;26.55;;
79047;SDS011;68680;50.764;6.120;2023-05-10T00:37:18;78.68;;;27.02;;
79047;SDS011;68680;50.764;6.120;2023-05-10T00:39:44;88.95;;;27.05;;
79047;SDS011;68680;50.764;6.120;2023-05-10T00:42:10;94.22;;;27.23;;
79047;SDS011;68680;50.764;6.120;2023-05-10T00:44:35;132.88;;;30.50;;
79047;SDS011;68680;50.764;6.120;2023-05-10T00:47:01;103.97;;;28.17;;
79047;SDS011;68680;50.764;6.120;2023-05-10T00:49:29;76.85;;;23.95;;
79047;SDS011;68680;50.764;6.120;2023-05-10T00:51:55;68.85;;;23.48;;
79047;SDS011;68680;50.764;6.120;2023-05-10T00:54:21;51.85;;;19.92;;
79047;SDS011;68680;50.764;6.120;2023-05-10T00:56:47;76.38;;;21.75;;
79047;SDS011;68680;50.764;6.120;2023-05-10T00:59:12;71.60;;;22.05;;
79047;SDS011;68680;50.764;6.120;2023-05-10T01:01:39;47.42;;;17.52;;
79047;SDS011;68680;50.764;6.120;2023-05-10T01:04:05;58.75;;;19.80;;
79047;SDS011;68680;50.764;6.120;2023-05-10T01:06:32;84.43;;;22.88;;
79047;SDS011;68680;50.764;6.120;2023-05-10T01:08:58;47.83;;;18.00;;
79047;SDS011;68680;50.764;6.120;2023-05-10T01:11:24;40.30;;;17.15;;
79047;SDS011;68680;50.764;6.120;2023-05-10T01:13:50;40.38;;;17.55;;
79047;SDS011;68680;50.764;6.120;2023-05-10T01:16:22;51.25;;;17.98;;
79047;SDS011;68680;50.764;6.120;2023-05-10T01:18:49;44.90;;;17.88;;
79047;SDS011;68680;50.764;6.120;2023-05-10T01:21:18;39.50;;;16.98;;
79047;SDS011;68680;50.764;6.120;2023-05-10T01:27:41;32.75;;;14.90;;
79047;SDS011;68680;50.764;6.120;2023-05-10T01:31:00;35.75;;;14.75;;
79047;SDS011;68680;50.764;6.120;2023-05-10T01:33:40;54.55;;;18.13;;
79047;SDS011;68680;50.764;6.120;2023-05-10T01:36:15;42.80;;;16.67;;
79047;SDS011;68680;50.764;6.120;2023-05-10T01:38:49;35.15;;;16.17;;
79047;SDS011;68680;50.764;6.120;2023-05-10T01:41:27;39.42;;;17.00;;
79047;SDS011;68680;50.764;6.120;2023-05-10T01:44:06;45.83;;;18.05;;
79047;SDS011;68680;50.764;6.120;2023-05-10T01:46:42;42.50;;;17.02;;
79047;SDS011;68680;50.764;6.120;2023-05-10T01:51:49;64.05;;;19.63;;
79047;SDS011;68680;50.764;6.120;2023-05-10T01:54:19;52.78;;;18.42;;
79047;SDS011;68680;50.764;6.120;2023-05-10T01:56:47;38.97;;;15.88;;
79047;SDS011;68680;50.764;6.120;2023-05-10T01:59:20;34.70;;;16.40;;
79047;SDS011;68680;50.764;6.120;2023-05-10T02:01:52;38.15;;;16.17;;
79047;SDS011;68680;50.764;6.120;2023-05-10T02:04:24;31.52;;;14.80;;
79047;SDS011;68680;50.764;6.120;2023-05-10T02:06:52;31.83;;;14.40;;
79047;SDS011;68680;50.764;6.120;2023-05-10T02:09:20;33.15;;;14.57;;
79047;SDS011;68680;50.764;6.120;2023-05-10T02:11:48;27.67;;;13.55;;
79047;SDS011;68680;50.764;6.120;2023-05-10T02:14:15;29.05;;;13.82;;
79047;SDS011;68680;50.764;6.120;2023-05-10T02:16:43;28.23;;;14.88;;
79047;SDS011;68680;50.764;6.120;2023-05-10T02:19:11;34.72;;;14.57;;
79047;SDS011;68680;50.764;6.120;2023-05-10T02:21:40;37.33;;;16.38;;
79047;SDS011;68680;50.764;6.120;2023-05-10T02:24:08;29.17;;;14.95;;
79047;SDS011;68680;50.764;6.120;2023-05-10T02:26:36;36.63;;;15.88;;
79047;SDS011;68680;50.764;6.120;2023-05-10T02:29:04;36.85;;;16.60;;
79047;SDS011;68680;50.764;6.120;2023-05-10T02:31:32;50.78;;;18.70;;
79047;SDS011;68680;50.764;6.120;2023-05-10T02:34:00;41.25;;;18.60;;
79047;SDS011;68680;50.764;6.120;2023-05-10T02:36:28;41.50;;;18.00;;
79047;SDS011;68680;50.764;6.120;2023-05-10T02:38:57;51.95;;;21.40;;
79047;SDS011;68680;50.764;6.120;2023-05-10T02:41:26;60.70;;;21.10;;
79047;SDS011;68680;50.764;6.120;2023-05-10T02:43:56;52.95;;;22.27;;
79047;SDS011;68680;50.764;6.120;2023-05-10T02:46:27;55.67;;;22.13;;
79047;SDS011;68680;50.764;6.120;2023-05-10T02:48:53;49.22;;;20.00;;
79047;SDS011;68680;50.764;6.120;2023-05-10T02:51:19;57.00;;;22.92;;
79047;SDS011;68680;50.764;6.120;2023-05-10T02:53:50;61.13;;;23.15;;
79047;SDS011;68680;50.764;6.120;2023-05-10T02:56:23;51.70;;;21.58;;
79047;SDS011;68680;50.764;6.120;2023-05-10T02:58:53;61.35;;;23.27;;
79047;SDS011;68680;50.764;6.120;2023-05-10T03:01:20;56.35;;;22.15;;
79047;SDS011;68680;50.764;6.120;2023-05-10T03:03:46;55.83;;;22.60;;
79047;SDS011;68680;50.764;6.120;2023-05-10T03:06:12;56.67;;;22.67;;
79047;SDS011;68680;50.764;6.120;2023-05-10T03:08:37;55.90;;;23.77;;
79047;SDS011;68680;50.764;6.120;2023-05-10T03:11:09;58.30;;;22.70;;
79047;SDS011;68680;50.764;6.120;2023-05-10T03:14:01;42.92;;;19.50;;
79047;SDS011;68680;50.764;6.120;2023-05-10T03:16:42;57.00;;;21.05;;
79047;SDS011;68680;50.764;6.120;2023-05-10T03:19:16;48.75;;;19.00;;
79047;SDS011;68680;50.764;6.120;2023-05-10T03:21:49;47.90;;;19.85;;
79047;SDS011;68680;50.764;6.120;2023-05-10T03:24:18;42.33;;;17.70;;
79047;SDS011;68680;50.764;6.120;2023-05-10T03:26:50;42.33;;;18.95;;
79047;SDS011;68680;50.764;6.120;2023-05-10T03:29:21;45.55;;;19.63;;
79047;SDS011;68680;50.764;6.120;2023-05-10T03:31:50;52.22;;;20.73;;
79047;SDS011;68680;50.764;6.120;2023-05-10T03:34:16;50.90;;;19.30;;
79047;SDS011;68680;50.764;6.120;2023-05-10T03:36:48;51.97;;;19.77;;
79047;SDS011;68680;50.764;6.120;2023-05-10T03:39:14;57.25;;;20.98;;
79047;SDS011;68680;50.764;6.120;2023-05-10T03:41:39;52.95;;;21.10;;
79047;SDS011;68680;50.764;6.120;2023-05-10T03:44:06;54.58;;;19.98;;
79047;SDS011;68680;50.764;6.120;2023-05-10T03:46:32;58.28;;;20.75;;
79047;SDS011;68680;50.764;6.120;2023-05-10T03:48:58;44.85;;;18.33;;
79047;SDS011;68680;50.764;6.120;2023-05-10T03:51:24;52.38;;;20.38;;
79047;SDS011;68680;50.764;6.120;2023-05-10T03:53:50;52.30;;;19.73;;
79047;SDS011;68680;50.764;6.120;2023-05-10T03:56:15;43.60;;;18.33;;
79047;SDS011;68680;50.764;6.120;2023-05-10T03:58:41;51.05;;;20.40;;
79047;SDS011;68680;50.764;6.120;2023-05-10T04:01:08;48.80;;;18.85;;
79047;SDS011;68680;50.764;6.120;2023-05-10T04:03:34;48.25;;;20.10;;
79047;SDS011;68680;50.764;6.120;2023-05-10T04:06:00;52.60;;;20.25;;
79047;SDS011;68680;50.764;6.120;2023-05-10T04:08:26;46.55;;;21.10;;
79047;SDS011;68680;50.764;6.120;2023-05-10T04:10:52;51.85;;;18.33;;
79047;SDS011;68680;50.764;6.120;2023-05-10T04:13:18;46.83;;;19.15;;
79047;SDS011;68680;50.764;6.120;2023-05-10T04:15:44;48.45;;;18.10;;
79047;SDS011;68680;50.764;6.120;2023-05-10T04:18:11;55.55;;;20.38;;
79047;SDS011;68680;50.764;6.120;2023-05-10T04:20:37;46.35;;;19.13;;
79047;SDS011;68680;50.764;6.120;2023-05-10T04:23:02;45.08;;;18.52;;
79047;SDS011;68680;50.764;6.120;2023-05-10T04:25:28;39.20;;;16.73;;
79047;SDS011;68680;50.764;6.120;2023-05-10T04:27:54;33.42;;;15.65;;
79047;SDS011;68680;50.764;6.120;2023-05-10T04:30:20;45.13;;;17.45;;
79047;SDS011;68680;50.764;6.120;2023-05-10T04:32:45;40.67;;;16.60;;
79047;SDS011;68680;50.764;6.120;2023-05-10T04:35:13;33.03;;;15.02;;
79047;SDS011;68680;50.764;6.120;2023-05-10T04:37:39;45.55;;;17.50;;
79047;SDS011;68680;50.764;6.120;2023-05-10T04:40:05;37.28;;;15.82;;
79047;SDS011;68680;50.764;6.120;2023-05-10T04:42:32;35.45;;;15.52;;
79047;SDS011;68680;50.764;6.120;2023-05-10T04:44:58;33.58;;;14.38;;
79047;SDS011;68680;50.764;6.120;2023-05-10T04:47:24;41.75;;;15.73;;
79047;SDS011;68680;50.764;6.120;2023-05-10T04:49:49;34.90;;;15.23;;
79047;SDS011;68680;50.764;6.120;2023-05-10T04:52:17;40.75;;;15.75;;
79047;SDS011;68680;50.764;6.120;2023-05-10T04:54:42;32.75;;;14.50;;
79047;SDS011;68680;50.764;6.120;2023-05-10T04:57:08;32.30;;;14.48;;
79047;SDS011;68680;50.764;6.120;2023-05-10T04:59:35;46.38;;;16.45;;
79047;SDS011;68680;50.764;6.120;2023-05-10T05:02:01;44.78;;;15.70;;
79047;SDS011;68680;50.764;6.120;2023-05-10T05:04:26;42.03;;;15.73;;
79047;SDS011;68680;50.764;6.120;2023-05-10T05:06:52;42.88;;;15.63;;
79047;SDS011;68680;50.764;6.120;2023-05-10T05:09:19;54.97;;;16.88;;
79047;SDS011;68680;50.764;6.120;2023-05-10T05:11:45;52.95;;;17.80;;
79047;SDS011;68680;50.764;6.120;2023-05-10T05:14:11;69.05;;;18.33;;
79047;SDS011;68680;50.764;6.120;2023-05-10T05:16:36;49.30;;;15.43;;
79047;SDS011;68680;50.764;6.120;2023-05-10T05:19:02;40.15;;;15.50;;
79047;SDS011;68680;50.764;6.120;2023-05-10T05:21:28;41.20;;;14.88;;
79047;SDS011;68680;50.764;6.120;2023-05-10T05:23:54;42.05;;;14.13;;
79047;SDS011;68680;50.764;6.120;2023-05-10T05:26:21;35.30;;;14.05;;
79047;SDS011;68680;50.764;6.120;2023-05-10T05:28:47;37.10;;;13.48;;
79047;SDS011;68680;50.764;6.120;2023-05-10T05:31:12;38.15;;;14.95;;
79047;SDS011;68680;50.764;6.120;2023-05-10T05:33:38;34.17;;;12.38;;
79047;SDS011;68680;50.764;6.120;2023-05-10T05:36:04;41.13;;;13.10;;
79047;SDS011;68680;50.764;6.120;2023-05-10T05:38:31;27.83;;;12.02;;
79047;SDS011;68680;50.764;6.120;2023-05-10T05:40:57;38.47;;;12.38;;
79047;SDS011;68680;50.764;6.120;2023-05-10T05:43:24;34.63;;;12.43;;
79047;SDS011;68680;50.764;6.120;2023-05-10T05:45:51;32.00;;;12.02;;
79047;SDS011;68680;50.764;6.120;2023-05-10T05:48:17;32.38;;;11.45;;
79047;SDS011;68680;50.764;6.120;2023-05-10T05:50:43;25.48;;;10.55;;
79047;SDS011;68680;50.764;6.120;2023-05-10T05:53:09;29.33;;;10.77;;
79047;SDS011;68680;50.764;6.120;2023-05-10T05:55:35;29.40;;;9.95;;
79047;SDS011;68680;50.764;6.120;2023-05-10T05:58:01;23.88;;;9.02;;
79047;SDS011;68680;50.764;6.120;2023-05-10T06:00:28;21.00;;;8.15;;
79047;SDS011;68680;50.764;6.120;2023-05-10T06:02:54;20.08;;;8.13;;
79047;SDS011;68680;50.764;6.120;2023-05-10T06:05:19;22.80;;;7.82;;
79047;SDS011;68680;50.764;6.120;2023-05-10T06:07:45;15.57;;;6.60;;
79047;SDS011;68680;50.764;6.120;2023-05-10T06:10:11;17.95;;;6.80;;
79047;SDS011;68680;50.764;6.120;2023-05-10T06:12:39;13.80;;;6.13;;
79047;SDS011;68680;50.764;6.120;2023-05-10T06:15:05;13.18;;;6.85;;
79047;SDS011;68680;50.764;6.120;2023-05-10T06:17:34;17.10;;;6.72;;
79047;SDS011;68680;50.764;6.120;2023-05-10T06:20:00;15.95;;;6.07;;
79047;SDS011;68680;50.764;6.120;2023-05-10T06:22:26;11.98;;;5.75;;
79047;SDS011;68680;50.764;6.120;2023-05-10T06:24:51;10.68;;;5.40;;
79047;SDS011;68680;50.764;6.120;2023-05-10T06:27:17;14.48;;;5.47;;
79047;SDS011;68680;50.764;6.120;2023-05-10T06:29:43;8.60;;;5.13;;
79047;SDS011;68680;50.764;6.120;2023-05-10T06:32:09;11.63;;;4.95;;
79047;SDS011;68680;50.764;6.120;2023-05-10T06:34:36;10.60;;;4.70;;
79047;SDS011;68680;50.764;6.120;2023-05-10T06:37:02;14.70;;;5.93;;
79047;SDS011;68680;50.764;6.120;2023-05-10T06:39:27;11.23;;;4.65;;
79047;SDS011;68680;50.764;6.120;2023-05-10T06:41:53;6.82;;;3.15;;
79047;SDS011;68680;50.764;6.120;2023-05-10T06:44:19;2.00;;;1.55;;
79047;SDS011;68680;50.764;6.120;2023-05-10T06:46:44;2.67;;;1.00;;
79047;SDS011;68680;50.764;6.120;2023-05-10T06:49:10;1.25;;;0.70;;
79047;SDS011;68680;50.764;6.120;2023-05-10T06:51:37;1.85;;;0.60;;
79047;SDS011;68680;50.764;6.120;2023-05-10T06:54:03;0.47;;;0.43;;
79047;SDS011;68680;50.764;6.120;2023-05-10T06:56:29;1.23;;;0.80;;
79047;SDS011;68680;50.764;6.120;2023-05-10T06:58:55;1.13;;;0.57;;
79047;SDS011;68680;50.764;6.120;2023-05-10T07:01:20;0.47;;;0.40;;
79047;SDS011;68680;50.764;6.120;2023-05-10T07:03:46;1.23;;;0.60;;
79047;SDS011;68680;50.764;6.120;2023-05-10T07:06:12;1.08;;;0.55;;
79047;SDS011;68680;50.764;6.120;2023-05-10T07:08:39;1.65;;;0.75;;
79047;SDS011;68680;50.764;6.120;2023-05-10T07:11:05;2.17;;;0.63;;
79047;SDS011;68680;50.764;6.120;2023-05-10T07:13:32;3.50;;;0.82;;
79047;SDS011;68680;50.764;6.120;2023-05-10T07:15:58;1.65;;;0.65;;
79047;SDS011;68680;50.764;6.120;2023-05-10T07:18:25;4.82;;;0.93;;
79047;SDS011;68680;50.764;6.120;2023-05-10T07:20:51;4.53;;;0.70;;
79047;SDS011;68680;50.764;6.120;2023-05-10T07:23:17;0.98;;;0.30;;
79047;SDS011;68680;50.764;6.120;2023-05-10T07:25:45;4.20;;;0.60;;
79047;SDS011;68680;50.764;6.120;2023-05-10T07:28:11;3.55;;;0.60;;
79047;SDS011;68680;50.764;6.120;2023-05-10T07:30:38;2.45;;;0.80;;
79047;SDS011;68680;50.764;6.120;2023-05-10T07:33:03;1.67;;;0.75;;
79047;SDS011;68680;50.764;6.120;2023-05-10T07:35:29;1.85;;;1.10;;
79047;SDS011;68680;50.764;6.120;2023-05-10T07:37:55;2.67;;;1.10;;
79047;SDS011;68680;50.764;6.120;2023-05-10T07:40:21;2.60;;;1.23;;
79047;SDS011;68680;50.764;6.120;2023-05-10T07:42:48;4.18;;;1.90;;
79047;SDS011;68680;50.764;6.120;2023-05-10T07:45:14;3.55;;;2.15;;
79047;SDS011;68680;50.764;6.120;2023-05-10T07:47:40;4.85;;;2.53;;
79047;SDS011;68680;50.764;6.120;2023-05-10T07:50:06;11.02;;;3.70;;
79047;SDS011;68680;50.764;6.120;2023-05-10T07:52:33;11.32;;;3.90;;
79047;SDS011;68680;50.764;6.120;2023-05-10T07:54:59;17.67;;;5.10;;
79047;SDS011;68680;50.764;6.120;2023-05-10T07:57:25;8.65;;;3.80;;
79047;SDS011;68680;50.764;6.120;2023-05-10T07:59:52;13.10;;;4.82;;
79047;SDS011;68680;50.764;6.120;2023-05-10T08:02:18;12.27;;;5.47;;
79047;SDS011;68680;50.764;6.120;2023-05-10T08:04:44;14.50;;;6.30;;
79047;SDS011;68680;50.764;6.120;2023-05-10T08:07:10;14.90;;;6.50;;
79047;SDS011;68680;50.764;6.120;2023-05-10T08:09:35;16.13;;;6.55;;
79047;SDS011;68680;50.764;6.120;2023-05-10T08:12:01;13.00;;;6.18;;
79047;SDS011;68680;50.764;6.120;2023-05-10T08:14:27;17.88;;;7.20;;
79047;SDS011;68680;50.764;6.120;2023-05-10T08:16:55;13.25;;;6.43;;
79047;SDS011;68680;50.764;6.120;2023-05-10T08:19:21;12.32;;;4.88;;
79047;SDS011;68680;50.764;6.120;2023-05-10T08:21:47;5.10;;;2.63;;
79047;SDS011;68680;50.764;6.120;2023-05-10T08:24:13;1.98;;;1.60;;
79047;SDS011;68680;50.764;6.120;2023-05-10T08:26:38;2.60;;;1.92;;
79047;SDS011;68680;50.764;6.120;2023-05-10T08:29:04;3.15;;;2.13;;
79047;SDS011;68680;50.764;6.120;2023-05-10T08:31:30;1.70;;;1.60;;
79047;SDS011;68680;50.764;6.120;2023-05-10T08:33:57;2.00;;;1.73;;
79047;SDS011;68680;50.764;6.120;2023-05-10T08:36:23;3.80;;;2.47;;
79047;SDS011;68680;50.764;6.120;2023-05-10T08:38:49;3.83;;;3.15;;
79047;SDS011;68680;50.764;6.120;2023-05-10T08:41:15;2.65;;;2.28;;
79047;SDS011;68680;50.764;6.120;2023-05-10T08:43:43;3.70;;;2.88;;
79047;SDS011;68680;50.764;6.120;2023-05-10T08:46:09;2.40;;;2.10;;
79047;SDS011;68680;50.764;6.120;2023-05-10T08:48:36;2.25;;;2.00;;
79047;SDS011;68680;50.764;6.120;2023-05-10T08:51:05;4.13;;;2.38;;
79047;SDS011;68680;50.764;6.120;2023-05-10T08:53:33;3.33;;;2.83;;
79047;SDS011;68680;50.764;6.120;2023-05-10T08:56:02;2.97;;;2.40;;
79047;SDS011;68680;50.764;6.120;2023-05-10T08:58:28;6.20;;;3.53;;
79047;SDS011;68680;50.764;6.120;2023-05-10T09:00:54;4.35;;;3.10;;
79047;SDS011;68680;50.764;6.120;2023-05-10T09:03:22;3.92;;;3.00;;
79047;SDS011;68680;50.764;6.120;2023-05-10T09:05:48;4.20;;;2.55;;
79047;SDS011;68680;50.764;6.120;2023-05-10T09:08:15;2.47;;;2.28;;
79047;SDS011;68680;50.764;6.120;2023-05-10T09:10:42;4.15;;;3.00;;
79047;SDS011;68680;50.764;6.120;2023-05-10T09:13:09;3.33;;;2.83;;
79047;SDS011;68680;50.764;6.120;2023-05-10T09:15:35;3.40;;;2.55;;
79047;SDS011;68680;50.764;6.120;2023-05-10T09:18:01;4.65;;;2.80;;
79047;SDS011;68680;50.764;6.120;2023-05-10T09:20:27;3.63;;;3.13;;
79047;SDS011;68680;50.764;6.120;2023-05-10T09:22:53;3.85;;;2.70;;
79047;SDS011;68680;50.764;6.120;2023-05-10T09:25:20;5.00;;;3.83;;
79047;SDS011;68680;50.764;6.120;2023-05-10T09:27:47;3.42;;;2.90;;
79047;SDS011;68680;50.764;6.120;2023-05-10T09:30:15;3.35;;;2.75;;
79047;SDS011;68680;50.764;6.120;2023-05-10T09:32:43;3.78;;;3.30;;
79047;SDS011;68680;50.764;6.120;2023-05-10T09:35:11;5.53;;;2.72;;
79047;SDS011;68680;50.764;6.120;2023-05-10T09:37:39;2.78;;;2.35;;
79047;SDS011;68680;50.764;6.120;2023-05-10T09:40:07;2.67;;;2.38;;
79047;SDS011;68680;50.764;6.120;2023-05-10T09:42:38;2.35;;;2.10;;
79047;SDS011;68680;50.764;6.120;2023-05-10T09:45:04;2.20;;;2.00;;
79047;SDS011;68680;50.764;6.120;2023-05-10T09:47:32;1.98;;;1.77;;
79047;SDS011;68680;50.764;6.120;2023-05-10T09:49:59;3.90;;;2.40;;
79047;SDS011;68680;50.764;6.120;2023-05-10T09:52:26;2.70;;;2.40;;
79047;SDS011;68680;50.764;6.120;2023-05-10T09:54:52;2.42;;;2.22;;
79047;SDS011;68680;50.764;6.120;2023-05-10T09:57:20;2.55;;;2.35;;
79047;SDS011;68680;50.764;6.120;2023-05-10T09:59:48;2.85;;;2.58;;
79047;SDS011;68680;50.764;6.120;2023-05-10T10:02:14;3.20;;;2.60;;
79047;SDS011;68680;50.764;6.120;2023-05-10T10:04:40;3.83;;;3.45;;
79047;SDS011;68680;50.764;6.120;2023-05-10T10:07:06;4.30;;;3.90;;
79047;SDS011;68680;50.764;6.120;2023-05-10T10:09:32;4.18;;;3.33;;
79047;SDS011;68680;50.764;6.120;2023-05-10T10:11:59;3.58;;;3.30;;
79047;SDS011;68680;50.764;6.120;2023-05-10T10:14:26;4.45;;;4.10;;
79047;SDS011;68680;50.764;6.120;2023-05-10T10:16:53;6.18;;;4.70;;
79047;SDS011;68680;50.764;6.120;2023-05-10T10:19:20;4.97;;;4.55;;
79047;SDS011;68680;50.764;6.120;2023-05-10T10:21:47;4.90;;;4.40;;
79047;SDS011;68680;50.764;6.120;2023-05-10T10:24:13;4.40;;;3.97;;
79047;SDS011;68680;50.764;6.120;2023-05-10T10:26:38;4.43;;;4.03;;
79047;SDS011;68680;50.764;6.120;2023-05-10T10:29:08;3.20;;;3.00;;
79047;SDS011;68680;50.764;6.120;2023-05-10T10:31:47;3.70;;;3.08;;
79047;SDS011;68680;50.764;6.120;2023-05-10T10:34:25;3.67;;;3.38;;
79047;SDS011;68680;50.764;6.120;2023-05-10T10:36:53;3.83;;;3.53;;
79047;SDS011;68680;50.764;6.120;2023-05-10T10:39:21;4.07;;;3.58;;
79047;SDS011;68680;50.764;6.120;2023-05-10T10:41:49;3.63;;;3.33;;
79047;SDS011;68680;50.764;6.120;2023-05-10T10:44:23;3.78;;;3.45;;
79047;SDS011;68680;50.764;6.120;2023-05-10T10:47:00;3.40;;;3.05;;
79047;SDS011;68680;50.764;6.120;2023-05-10T10:49:31;5.60;;;4.00;;
79047;SDS011;68680;50.764;6.120;2023-05-10T10:52:20;3.92;;;3.50;;
79047;SDS011;68680;50.764;6.120;2023-05-10T10:57:18;3.85;;;3.40;;
79047;SDS011;68680;50.764;6.120;2023-05-10T10:59:44;4.78;;;2.97;;
79047;SDS011;68680;50.764;6.120;2023-05-10T11:02:12;4.85;;;2.88;;
79047;SDS011;68680;50.764;6.120;2023-05-10T11:05:00;3.30;;;3.10;;
79047;SDS011;68680;50.764;6.120;2023-05-10T11:08:09;3.53;;;2.97;;
79047;SDS011;68680;50.764;6.120;2023-05-10T11:10:51;4.97;;;4.03;;
79047;SDS011;68680;50.764;6.120;2023-05-10T11:13:29;3.92;;;3.38;;
79047;SDS011;68680;50.764;6.120;2023-05-10T11:15:56;4.00;;;3.40;;
79047;SDS011;68680;50.764;6.120;2023-05-10T11:18:23;5.03;;;3.33;;
79047;SDS011;68680;50.764;6.120;2023-05-10T11:20:55;3.60;;;3.30;;
79047;SDS011;68680;50.764;6.120;2023-05-10T11:23:23;6.50;;;3.97;;
79047;SDS011;68680;50.764;6.120;2023-05-10T11:25:54;3.90;;;3.60;;
79047;SDS011;68680;50.764;6.120;2023-05-10T11:28:20;3.75;;;3.45;;
79047;SDS011;68680;50.764;6.120;2023-05-10T11:30:46;4.38;;;3.55;;
79047;SDS011;68680;50.764;6.120;2023-05-10T11:33:16;4.82;;;4.28;;
79047;SDS011;68680;50.764;6.120;2023-05-10T11:35:43;4.50;;;4.10;;
79047;SDS011;68680;50.764;6.120;2023-05-10T11:38:10;4.90;;;4.50;;
79047;SDS011;68680;50.764;6.120;2023-05-10T11:40:38;5.20;;;4.72;;
79047;SDS011;68680;50.764;6.120;2023-05-10T11:43:05;5.40;;;4.40;;
79047;SDS011;68680;50.764;6.120;2023-05-10T11:45:31;6.05;;;5.10;;
79047;SDS011;68680;50.764;6.120;2023-05-10T11:47:58;5.97;;;5.38;;
79047;SDS011;68680;50.764;6.120;2023-05-10T11:50:25;5.53;;;4.95;;
79047;SDS011;68680;50.764;6.120;2023-05-10T11:52:51;4.68;;;3.92;;
79047;SDS011;68680;50.764;6.120;2023-05-10T11:55:18;4.20;;;3.80;;
79047;SDS011;68680;50.764;6.120;2023-05-10T11:57:45;4.03;;;3.70;;
79047;SDS011;68680;50.764;6.120;2023-05-10T12:00:11;5.38;;;4.43;;
79047;SDS011;68680;50.764;6.120;2023-05-10T12:02:38;5.35;;;4.90;;
79047;SDS011;68680;50.764;6.120;2023-05-10T12:05:05;5.55;;;5.05;;
79047;SDS011;68680;50.764;6.120;2023-05-10T12:07:32;5.75;;;5.18;;
79047;SDS011;68680;50.764;6.120;2023-05-10T12:10:05;7.72;;;5.22;;
79047;SDS011;68680;50.764;6.120;2023-05-10T12:12:40;5.18;;;4.47;;
79047;SDS011;68680;50.764;6.120;2023-05-10T12:15:10;4.60;;;4.20;;
79047;SDS011;68680;50.764;6.120;2023-05-10T12:17:41;4.35;;;3.95;;
79047;SDS011;68680;50.764;6.120;2023-05-10T12:20:15;3.97;;;3.63;;
79047;SDS011;68680;50.764;6.120;2023-05-10T12:22:49;4.70;;;4.20;;
79047;SDS011;68680;50.764;6.120;2023-05-10T12:25:17;6.72;;;4.80;;
79047;SDS011;68680;50.764;6.120;2023-05-10T12:27:49;7.03;;;5.47;;
79047;SDS011;68680;50.764;6.120;2023-05-10T12:30:20;6.38;;;4.75;;
79047;SDS011;68680;50.764;6.120;2023-05-10T12:32:48;6.47;;;5.38;;
79047;SDS011;68680;50.764;6.120;2023-05-10T12:35:14;7.05;;;5.40;;
79047;SDS011;68680;50.764;6.120;2023-05-10T12:37:41;5.30;;;4.72;;
79047;SDS011;68680;50.764;6.120;2023-05-10T12:40:08;5.65;;;4.55;;
79047;SDS011;68680;50.764;6.120;2023-05-10T12:42:36;7.70;;;5.40;;
79047;SDS011;68680;50.764;6.120;2023-05-10T12:45:05;7.97;;;5.57;;
79047;SDS011;68680;50.764;6.120;2023-05-10T12:47:32;7.60;;;5.28;;
79047;SDS011;68680;50.764;6.120;2023-05-10T12:49:59;6.28;;;4.75;;
79047;SDS011;68680;50.764;6.120;2023-05-10T12:52:29;7.15;;;5.57;;
79047;SDS011;68680;50.764;6.120;2023-05-10T12:54:56;6.93;;;5.45;;
79047;SDS011;68680;50.764;6.120;2023-05-10T12:57:21;6.65;;;5.07;;
79047;SDS011;68680;50.764;6.120;2023-05-10T12:59:47;8.98;;;5.78;;
79047;SDS011;68680;50.764;6.120;2023-05-10T13:02:15;7.43;;;6.00;;
79047;SDS011;68680;50.764;6.120;2023-05-10T13:04:41;7.30;;;5.68;;
79047;SDS011;68680;50.764;6.120;2023-05-10T13:07:06;8.90;;;5.88;;
79047;SDS011;68680;50.764;6.120;2023-05-10T13:09:32;9.90;;;6.18;;
79047;SDS011;68680;50.764;6.120;2023-05-10T13:11:58;10.32;;;6.28;;
79047;SDS011;68680;50.764;6.120;2023-05-10T13:14:24;9.15;;;5.20;;
79047;SDS011;68680;50.764;6.120;2023-05-10T13:16:50;8.45;;;5.63;;
79047;SDS011;68680;50.764;6.120;2023-05-10T13:19:17;8.90;;;5.82;;
79047;SDS011;68680;50.764;6.120;2023-05-10T13:21:43;7.82;;;5.75;;
79047;SDS011;68680;50.764;6.120;2023-05-10T13:24:09;7.63;;;6.32;;
79047;SDS011;68680;50.764;6.120;2023-05-10T13:26:35;9.80;;;6.25;;
79047;SDS011;68680;50.764;6.120;2023-05-10T13:29:02;12.20;;;6.72;;
79047;SDS011;68680;50.764;6.120;2023-05-10T13:31:28;8.27;;;5.88;;
79047;SDS011;68680;50.764;6.120;2023-05-10T13:33:54;10.80;;;6.55;;
79047;SDS011;68680;50.764;6.120;2023-05-10T13:36:21;12.60;;;6.38;;
79047;SDS011;68680;50.764;6.120;2023-05-10T13:38:47;11.32;;;6.90;;
79047;SDS011;68680;50.764;6.120;2023-05-10T13:41:13;7.30;;;5.53;;
79047;SDS011;68680;50.764;6.120;2023-05-10T13:43:39;8.02;;;5.40;;
79047;SDS011;68680;50.764;6.120;2023-05-10T13:46:05;9.60;;;5.22;;
79047;SDS011;68680;50.764;6.120;2023-05-10T13:48:31;11.23;;;5.65;;
79047;SDS011;68680;50.764;6.120;2023-05-10T13:50:57;5.50;;;4.10;;
79047;SDS011;68680;50.764;6.120;2023-05-10T13:53:25;6.47;;;4.00;;
79047;SDS011;68680;50.764;6.120;2023-05-10T13:55:50;8.13;;;4.28;;
79047;SDS011;68680;50.764;6.120;2023-05-10T13:58:16;7.05;;;4.55;;
79047;SDS011;68680;50.764;6.120;2023-05-10T14:00:42;4.80;;;4.00;;
79047;SDS011;68680;50.764;6.120;2023-05-10T14:03:08;5.93;;;3.88;;
79047;SDS011;68680;50.764;6.120;2023-05-10T14:05:34;4.75;;;3.80;;
79047;SDS011;68680;50.764;6.120;2023-05-10T14:08:00;6.20;;;4.45;;
79047;SDS011;68680;50.764;6.120;2023-05-10T14:10:27;5.47;;;3.80;;
79047;SDS011;68680;50.764;6.120;2023-05-10T14:12:53;6.43;;;4.35;;
79047;SDS011;68680;50.764;6.120;2023-05-10T14:15:18;7.68;;;4.63;;
79047;SDS011;68680;50.764;6.120;2023-05-10T14:17:44;5.65;;;4.55;;
79047;SDS011;68680;50.764;6.120;2023-05-10T14:20:10;8.05;;;4.40;;
79047;SDS011;68680;50.764;6.120;2023-05-10T14:22:36;5.53;;;4.38;;
79047;SDS011;68680;50.764;6.120;2023-05-10T14:25:02;6.30;;;5.22;;
79047;SDS011;68680;50.764;6.120;2023-05-10T14:27:31;7.13;;;5.85;;
79047;SDS011;68680;50.764;6.120;2023-05-10T14:29:57;11.65;;;7.88;;
79047;SDS011;68680;50.764;6.120;2023-05-10T14:32:22;9.25;;;6.57;;
79047;SDS011;68680;50.764;6.120;2023-05-10T14:34:48;11.52;;;7.80;;
79047;SDS011;68680;50.764;6.120;2023-05-10T14:37:14;12.95;;;8.25;;
79047;SDS011;68680;50.764;6.120;2023-05-10T14:39:40;11.75;;;6.93;;
79047;SDS011;68680;50.764;6.120;2023-05-10T14:42:05;14.32;;;9.35;;
79047;SDS011;68680;50.764;6.120;2023-05-10T14:44:32;13.30;;;8.68;;
79047;SDS011;68680;50.764;6.120;2023-05-10T14:46:58;19.10;;;11.40;;